sensor_id;sensor_type;location;lat;lon;timestamp;P1;durP1;ratioP1;P2;durP2;ratioP2
35022;SDS011;21214;44.912;8.204;2024-01-30T00:01:12;82.15;;;42.38;;
35022;SDS011;21214;44.912;8.204;2024-01-30T00:03:37;87.63;;;41.08;;
35022;SDS011;21214;44.912;8.204;2024-01-30T00:06:03;78.35;;;41.58;;
35022;SDS011;21214;44.912;8.204;2024-01-30T00:08:29;89.43;;;43.00;;
35022;SDS011;21214;44.912;8.204;2024-01-30T00:10:54;88.43;;;40.90;;
35022;SDS011;21214;44.912;8.204;2024-01-30T00:13:19;118.10;;;43.22;;
35022;SDS011;21214;44.912;8.204;2024-01-30T00:15:45;97.43;;;43.95;;
35022;SDS011;21214;44.912;8.204;2024-01-30T00:18:11;78.35;;;42.00;;
35022;SDS011;21214;44.912;8.204;2024-01-30T00:20:36;74.10;;;44.47;;
35022;SDS011;21214;44.912;8.204;2024-01-30T00:23:02;73.50;;;40.75;;
35022;SDS011;21214;44.912;8.204;2024-01-30T00:25:27;72.03;;;43.17;;
35022;SDS011;21214;44.912;8.204;2024-01-30T00:27:53;76.50;;;41.53;;
35022;SDS011;21214;44.912;8.204;2024-01-30T00:30:18;70.43;;;41.47;;
35022;SDS011;21214;44.912;8.204;2024-01-30T00:32:45;72.25;;;40.42;;
35022;SDS011;21214;44.912;8.204;2024-01-30T00:35:10;69.10;;;39.42;;
35022;SDS011;21214;44.912;8.204;2024-01-30T00:37:36;85.07;;;39.95;;
35022;SDS011;21214;44.912;8.204;2024-01-30T00:40:01;64.43;;;39.40;;
35022;SDS011;21214;44.912;8.204;2024-01-30T00:42:27;65.90;;;40.53;;
35022;SDS011;21214;44.912;8.204;2024-01-30T00:44:52;56.25;;;38.75;;
35022;SDS011;21214;44.912;8.204;2024-01-30T00:47:18;59.50;;;37.72;;
35022;SDS011;21214;44.912;8.204;2024-01-30T00:49:43;58.38;;;37.55;;
35022;SDS011;21214;44.912;8.204;2024-01-30T00:52:09;63.47;;;38.83;;
35022;SDS011;21214;44.912;8.204;2024-01-30T00:54:34;63.33;;;39.95;;
35022;SDS011;21214;44.912;8.204;2024-01-30T00:57:01;56.03;;;36.65;;
35022;SDS011;21214;44.912;8.204;2024-01-30T00:59:26;69.72;;;39.65;;
35022;SDS011;21214;44.912;8.204;2024-01-30T01:01:52;67.65;;;40.75;;
35022;SDS011;21214;44.912;8.204;2024-01-30T01:04:17;71.45;;;40.25;;
35022;SDS011;21214;44.912;8.204;2024-01-30T01:06:43;62.38;;;39.55;;
35022;SDS011;21214;44.912;8.204;2024-01-30T01:09:10;60.92;;;38.67;;
35022;SDS011;21214;44.912;8.204;2024-01-30T01:11:36;66.15;;;40.33;;
35022;SDS011;21214;44.912;8.204;2024-01-30T01:14:03;66.05;;;41.22;;
35022;SDS011;21214;44.912;8.204;2024-01-30T01:16:29;64.75;;;40.33;;
35022;SDS011;21214;44.912;8.204;2024-01-30T01:18:54;62.13;;;40.03;;
35022;SDS011;21214;44.912;8.204;2024-01-30T01:21:20;63.15;;;38.03;;
35022;SDS011;21214;44.912;8.204;2024-01-30T01:23:45;66.68;;;40.10;;
35022;SDS011;21214;44.912;8.204;2024-01-30T01:26:11;93.22;;;38.70;;
35022;SDS011;21214;44.912;8.204;2024-01-30T01:28:36;106.97;;;41.33;;
35022;SDS011;21214;44.912;8.204;2024-01-30T01:31:02;64.65;;;41.55;;
35022;SDS011;21214;44.912;8.204;2024-01-30T01:33:33;68.65;;;41.67;;
35022;SDS011;21214;44.912;8.204;2024-01-30T01:35:59;61.90;;;39.80;;
35022;SDS011;21214;44.912;8.204;2024-01-30T01:38:24;64.85;;;39.30;;
35022;SDS011;21214;44.912;8.204;2024-01-30T01:40:50;55.47;;;38.53;;
35022;SDS011;21214;44.912;8.204;2024-01-30T01:43:16;67.18;;;38.55;;
35022;SDS011;21214;44.912;8.204;2024-01-30T01:45:41;68.65;;;38.75;;
35022;SDS011;21214;44.912;8.204;2024-01-30T01:48:07;73.47;;;39.00;;
35022;SDS011;21214;44.912;8.204;2024-01-30T01:50:33;61.47;;;38.60;;
35022;SDS011;21214;44.912;8.204;2024-01-30T01:52:59;55.70;;;38.83;;
35022;SDS011;21214;44.912;8.204;2024-01-30T01:55:24;53.83;;;38.47;;
35022;SDS011;21214;44.912;8.204;2024-01-30T01:57:52;61.58;;;39.53;;
35022;SDS011;21214;44.912;8.204;2024-01-30T02:00:18;66.07;;;40.63;;
35022;SDS011;21214;44.912;8.204;2024-01-30T02:02:45;64.72;;;42.10;;
35022;SDS011;21214;44.912;8.204;2024-01-30T02:05:11;57.58;;;40.33;;
35022;SDS011;21214;44.912;8.204;2024-01-30T02:07:36;69.60;;;43.30;;
35022;SDS011;21214;44.912;8.204;2024-01-30T02:10:02;74.53;;;41.15;;
35022;SDS011;21214;44.912;8.204;2024-01-30T02:12:29;64.15;;;41.70;;
35022;SDS011;21214;44.912;8.204;2024-01-30T02:14:54;65.75;;;42.00;;
35022;SDS011;21214;44.912;8.204;2024-01-30T02:17:20;69.35;;;43.88;;
35022;SDS011;21214;44.912;8.204;2024-01-30T02:19:46;69.13;;;44.30;;
35022;SDS011;21214;44.912;8.204;2024-01-30T02:22:11;75.18;;;43.58;;
35022;SDS011;21214;44.912;8.204;2024-01-30T02:24:37;77.00;;;46.00;;
35022;SDS011;21214;44.912;8.204;2024-01-30T02:27:03;72.85;;;44.05;;
35022;SDS011;21214;44.912;8.204;2024-01-30T02:29:28;69.28;;;44.38;;
35022;SDS011;21214;44.912;8.204;2024-01-30T02:31:54;68.53;;;44.42;;
35022;SDS011;21214;44.912;8.204;2024-01-30T02:34:19;77.32;;;45.90;;
35022;SDS011;21214;44.912;8.204;2024-01-30T02:36:45;72.28;;;45.00;;
35022;SDS011;21214;44.912;8.204;2024-01-30T02:39:11;67.53;;;44.38;;
35022;SDS011;21214;44.912;8.204;2024-01-30T02:41:36;70.63;;;46.13;;
35022;SDS011;21214;44.912;8.204;2024-01-30T02:44:02;78.95;;;43.75;;
35022;SDS011;21214;44.912;8.204;2024-01-30T02:46:28;67.20;;;46.03;;
35022;SDS011;21214;44.912;8.204;2024-01-30T02:48:54;70.28;;;45.85;;
35022;SDS011;21214;44.912;8.204;2024-01-30T02:51:19;67.53;;;44.40;;
35022;SDS011;21214;44.912;8.204;2024-01-30T02:53:45;75.57;;;47.15;;
35022;SDS011;21214;44.912;8.204;2024-01-30T02:56:10;67.03;;;44.10;;
35022;SDS011;21214;44.912;8.204;2024-01-30T02:58:37;69.68;;;45.65;;
35022;SDS011;21214;44.912;8.204;2024-01-30T03:01:02;69.18;;;44.33;;
35022;SDS011;21214;44.912;8.204;2024-01-30T03:03:28;71.00;;;46.08;;
35022;SDS011;21214;44.912;8.204;2024-01-30T03:05:53;72.25;;;46.58;;
35022;SDS011;21214;44.912;8.204;2024-01-30T03:08:19;69.90;;;45.83;;
35022;SDS011;21214;44.912;8.204;2024-01-30T03:10:45;73.20;;;46.17;;
35022;SDS011;21214;44.912;8.204;2024-01-30T03:13:10;71.35;;;46.47;;
35022;SDS011;21214;44.912;8.204;2024-01-30T03:15:36;75.10;;;47.05;;
35022;SDS011;21214;44.912;8.204;2024-01-30T03:18:01;72.70;;;46.33;;
35022;SDS011;21214;44.912;8.204;2024-01-30T03:20:29;71.00;;;45.13;;
35022;SDS011;21214;44.912;8.204;2024-01-30T03:22:55;70.93;;;46.53;;
35022;SDS011;21214;44.912;8.204;2024-01-30T03:25:20;79.13;;;47.20;;
35022;SDS011;21214;44.912;8.204;2024-01-30T03:27:46;74.95;;;48.30;;
35022;SDS011;21214;44.912;8.204;2024-01-30T03:30:11;69.75;;;45.75;;
35022;SDS011;21214;44.912;8.204;2024-01-30T03:32:37;76.97;;;47.95;;
35022;SDS011;21214;44.912;8.204;2024-01-30T03:35:02;74.65;;;47.83;;
35022;SDS011;21214;44.912;8.204;2024-01-30T03:37:28;76.70;;;49.58;;
35022;SDS011;21214;44.912;8.204;2024-01-30T03:39:53;73.25;;;47.45;;
35022;SDS011;21214;44.912;8.204;2024-01-30T03:42:19;78.47;;;47.47;;
35022;SDS011;21214;44.912;8.204;2024-01-30T03:44:44;73.50;;;45.58;;
35022;SDS011;21214;44.912;8.204;2024-01-30T03:47:10;72.97;;;44.60;;
35022;SDS011;21214;44.912;8.204;2024-01-30T03:49:35;66.20;;;43.20;;
35022;SDS011;21214;44.912;8.204;2024-01-30T03:52:00;66.15;;;42.67;;
35022;SDS011;21214;44.912;8.204;2024-01-30T03:54:26;74.82;;;44.83;;
35022;SDS011;21214;44.912;8.204;2024-01-30T03:56:51;76.53;;;43.10;;
35022;SDS011;21214;44.912;8.204;2024-01-30T03:59:17;71.03;;;42.47;;
35022;SDS011;21214;44.912;8.204;2024-01-30T04:01:47;73.78;;;44.85;;
35022;SDS011;21214;44.912;8.204;2024-01-30T04:04:12;75.43;;;43.20;;
35022;SDS011;21214;44.912;8.204;2024-01-30T04:06:38;73.68;;;44.42;;
35022;SDS011;21214;44.912;8.204;2024-01-30T04:09:03;69.18;;;42.67;;
35022;SDS011;21214;44.912;8.204;2024-01-30T04:11:29;70.50;;;42.50;;
35022;SDS011;21214;44.912;8.204;2024-01-30T04:13:54;68.65;;;42.83;;
35022;SDS011;21214;44.912;8.204;2024-01-30T04:16:20;74.70;;;42.97;;
35022;SDS011;21214;44.912;8.204;2024-01-30T04:18:49;66.68;;;41.03;;
35022;SDS011;21214;44.912;8.204;2024-01-30T04:21:14;76.50;;;40.97;;
35022;SDS011;21214;44.912;8.204;2024-01-30T04:23:40;74.18;;;39.95;;
35022;SDS011;21214;44.912;8.204;2024-01-30T04:26:06;67.80;;;40.47;;
35022;SDS011;21214;44.912;8.204;2024-01-30T04:28:32;86.90;;;41.28;;
35022;SDS011;21214;44.912;8.204;2024-01-30T04:30:57;79.40;;;40.67;;
35022;SDS011;21214;44.912;8.204;2024-01-30T04:33:22;73.57;;;41.47;;
35022;SDS011;21214;44.912;8.204;2024-01-30T04:35:48;71.70;;;40.92;;
35022;SDS011;21214;44.912;8.204;2024-01-30T04:38:13;68.93;;;40.47;;
35022;SDS011;21214;44.912;8.204;2024-01-30T04:40:39;64.47;;;39.95;;
35022;SDS011;21214;44.912;8.204;2024-01-30T04:43:05;65.85;;;40.55;;
35022;SDS011;21214;44.912;8.204;2024-01-30T04:45:31;76.75;;;40.95;;
35022;SDS011;21214;44.912;8.204;2024-01-30T04:47:56;70.30;;;39.38;;
35022;SDS011;21214;44.912;8.204;2024-01-30T04:50:22;77.47;;;40.65;;
35022;SDS011;21214;44.912;8.204;2024-01-30T04:52:48;72.95;;;40.25;;
35022;SDS011;21214;44.912;8.204;2024-01-30T04:55:14;74.90;;;39.25;;
35022;SDS011;21214;44.912;8.204;2024-01-30T04:57:39;64.28;;;39.92;;
35022;SDS011;21214;44.912;8.204;2024-01-30T05:00:05;63.28;;;39.08;;
35022;SDS011;21214;44.912;8.204;2024-01-30T05:02:31;68.28;;;40.63;;
35022;SDS011;21214;44.912;8.204;2024-01-30T05:04:56;62.47;;;37.05;;
35022;SDS011;21214;44.912;8.204;2024-01-30T05:07:24;59.47;;;38.92;;
35022;SDS011;21214;44.912;8.204;2024-01-30T05:09:49;67.75;;;39.92;;
35022;SDS011;21214;44.912;8.204;2024-01-30T05:12:15;84.00;;;40.25;;
35022;SDS011;21214;44.912;8.204;2024-01-30T05:14:40;94.68;;;41.78;;
35022;SDS011;21214;44.912;8.204;2024-01-30T05:17:06;71.82;;;40.60;;
35022;SDS011;21214;44.912;8.204;2024-01-30T05:19:32;80.95;;;46.63;;
35022;SDS011;21214;44.912;8.204;2024-01-30T05:21:58;81.15;;;47.72;;
35022;SDS011;21214;44.912;8.204;2024-01-30T05:24:23;79.40;;;48.20;;
35022;SDS011;21214;44.912;8.204;2024-01-30T05:26:49;77.35;;;48.45;;
35022;SDS011;21214;44.912;8.204;2024-01-30T05:29:16;76.00;;;47.78;;
35022;SDS011;21214;44.912;8.204;2024-01-30T05:31:42;76.05;;;47.40;;
35022;SDS011;21214;44.912;8.204;2024-01-30T05:34:07;77.47;;;48.80;;
35022;SDS011;21214;44.912;8.204;2024-01-30T05:36:34;78.40;;;48.22;;
35022;SDS011;21214;44.912;8.204;2024-01-30T05:38:59;83.75;;;50.45;;
35022;SDS011;21214;44.912;8.204;2024-01-30T05:41:25;80.85;;;46.95;;
35022;SDS011;21214;44.912;8.204;2024-01-30T05:43:54;75.28;;;47.28;;
35022;SDS011;21214;44.912;8.204;2024-01-30T05:46:19;80.05;;;48.47;;
35022;SDS011;21214;44.912;8.204;2024-01-30T05:48:44;71.93;;;44.78;;
35022;SDS011;21214;44.912;8.204;2024-01-30T05:51:10;74.82;;;45.58;;
35022;SDS011;21214;44.912;8.204;2024-01-30T05:53:35;74.93;;;45.80;;
35022;SDS011;21214;44.912;8.204;2024-01-30T05:56:02;74.28;;;46.67;;
35022;SDS011;21214;44.912;8.204;2024-01-30T05:58:29;74.07;;;45.78;;
35022;SDS011;21214;44.912;8.204;2024-01-30T06:00:56;76.25;;;47.28;;
35022;SDS011;21214;44.912;8.204;2024-01-30T06:03:22;72.75;;;46.67;;
35022;SDS011;21214;44.912;8.204;2024-01-30T06:05:47;71.53;;;46.90;;
35022;SDS011;21214;44.912;8.204;2024-01-30T06:08:13;73.53;;;46.13;;
35022;SDS011;21214;44.912;8.204;2024-01-30T06:10:38;71.15;;;44.92;;
35022;SDS011;21214;44.912;8.204;2024-01-30T06:13:04;72.47;;;46.92;;
35022;SDS011;21214;44.912;8.204;2024-01-30T06:15:29;71.10;;;46.47;;
35022;SDS011;21214;44.912;8.204;2024-01-30T06:17:55;75.88;;;48.10;;
35022;SDS011;21214;44.912;8.204;2024-01-30T06:20:20;82.57;;;49.15;;
35022;SDS011;21214;44.912;8.204;2024-01-30T06:22:46;80.82;;;50.58;;
35022;SDS011;21214;44.912;8.204;2024-01-30T06:25:11;82.20;;;52.13;;
35022;SDS011;21214;44.912;8.204;2024-01-30T06:27:37;80.95;;;49.08;;
35022;SDS011;21214;44.912;8.204;2024-01-30T06:30:03;83.28;;;51.42;;
35022;SDS011;21214;44.912;8.204;2024-01-30T06:32:30;76.38;;;49.17;;
35022;SDS011;21214;44.912;8.204;2024-01-30T06:34:59;73.38;;;47.13;;
35022;SDS011;21214;44.912;8.204;2024-01-30T06:37:28;70.90;;;46.58;;
35022;SDS011;21214;44.912;8.204;2024-01-30T06:39:53;74.03;;;49.22;;
35022;SDS011;21214;44.912;8.204;2024-01-30T06:42:19;73.90;;;48.28;;
35022;SDS011;21214;44.912;8.204;2024-01-30T06:44:45;73.55;;;47.47;;
35022;SDS011;21214;44.912;8.204;2024-01-30T06:47:10;71.97;;;48.65;;
35022;SDS011;21214;44.912;8.204;2024-01-30T06:49:36;70.03;;;48.25;;
35022;SDS011;21214;44.912;8.204;2024-01-30T06:52:07;72.82;;;48.33;;
35022;SDS011;21214;44.912;8.204;2024-01-30T06:54:33;67.35;;;47.95;;
35022;SDS011;21214;44.912;8.204;2024-01-30T06:56:59;72.65;;;49.13;;
35022;SDS011;21214;44.912;8.204;2024-01-30T06:59:25;77.32;;;50.67;;
35022;SDS011;21214;44.912;8.204;2024-01-30T07:01:51;85.70;;;51.22;;
35022;SDS011;21214;44.912;8.204;2024-01-30T07:04:16;80.45;;;52.80;;
35022;SDS011;21214;44.912;8.204;2024-01-30T07:06:43;87.25;;;52.13;;
35022;SDS011;21214;44.912;8.204;2024-01-30T07:09:09;89.55;;;52.85;;
35022;SDS011;21214;44.912;8.204;2024-01-30T07:11:34;87.78;;;52.85;;
35022;SDS011;21214;44.912;8.204;2024-01-30T07:14:00;84.32;;;52.63;;
35022;SDS011;21214;44.912;8.204;2024-01-30T07:16:25;81.43;;;50.63;;
35022;SDS011;21214;44.912;8.204;2024-01-30T07:18:51;91.20;;;52.38;;
35022;SDS011;21214;44.912;8.204;2024-01-30T07:21:16;82.25;;;53.35;;
35022;SDS011;21214;44.912;8.204;2024-01-30T07:23:42;80.38;;;50.63;;
35022;SDS011;21214;44.912;8.204;2024-01-30T07:26:08;79.22;;;50.25;;
35022;SDS011;21214;44.912;8.204;2024-01-30T07:28:34;76.32;;;50.53;;
35022;SDS011;21214;44.912;8.204;2024-01-30T07:31:00;80.38;;;51.88;;
35022;SDS011;21214;44.912;8.204;2024-01-30T07:33:26;77.30;;;50.28;;
35022;SDS011;21214;44.912;8.204;2024-01-30T07:35:52;78.85;;;50.78;;
35022;SDS011;21214;44.912;8.204;2024-01-30T07:38:18;76.90;;;51.72;;
35022;SDS011;21214;44.912;8.204;2024-01-30T07:40:43;78.60;;;51.80;;
35022;SDS011;21214;44.912;8.204;2024-01-30T07:43:09;83.75;;;53.67;;
35022;SDS011;21214;44.912;8.204;2024-01-30T07:45:35;78.20;;;52.00;;
35022;SDS011;21214;44.912;8.204;2024-01-30T07:48:00;74.43;;;50.35;;
35022;SDS011;21214;44.912;8.204;2024-01-30T07:50:26;78.43;;;50.67;;
35022;SDS011;21214;44.912;8.204;2024-01-30T07:52:52;77.20;;;51.70;;
35022;SDS011;21214;44.912;8.204;2024-01-30T07:55:22;71.22;;;48.50;;
35022;SDS011;21214;44.912;8.204;2024-01-30T07:57:52;72.60;;;48.10;;
35022;SDS011;21214;44.912;8.204;2024-01-30T08:00:20;76.20;;;50.10;;
35022;SDS011;21214;44.912;8.204;2024-01-30T08:02:46;70.35;;;49.33;;
35022;SDS011;21214;44.912;8.204;2024-01-30T08:05:12;72.10;;;48.75;;
35022;SDS011;21214;44.912;8.204;2024-01-30T08:07:40;72.90;;;49.83;;
35022;SDS011;21214;44.912;8.204;2024-01-30T08:10:08;69.43;;;48.20;;
35022;SDS011;21214;44.912;8.204;2024-01-30T08:12:36;74.38;;;48.85;;
35022;SDS011;21214;44.912;8.204;2024-01-30T08:15:01;72.97;;;47.85;;
35022;SDS011;21214;44.912;8.204;2024-01-30T08:17:28;75.10;;;49.70;;
35022;SDS011;21214;44.912;8.204;2024-01-30T08:19:53;71.97;;;49.25;;
35022;SDS011;21214;44.912;8.204;2024-01-30T08:22:19;79.80;;;50.15;;
35022;SDS011;21214;44.912;8.204;2024-01-30T08:24:44;78.78;;;49.55;;
35022;SDS011;21214;44.912;8.204;2024-01-30T08:27:09;74.00;;;49.45;;
35022;SDS011;21214;44.912;8.204;2024-01-30T08:29:35;76.55;;;49.08;;
35022;SDS011;21214;44.912;8.204;2024-01-30T08:32:01;76.88;;;48.40;;
35022;SDS011;21214;44.912;8.204;2024-01-30T08:34:26;74.90;;;48.45;;
35022;SDS011;21214;44.912;8.204;2024-01-30T08:36:52;78.68;;;49.85;;
35022;SDS011;21214;44.912;8.204;2024-01-30T08:39:18;72.70;;;47.63;;
35022;SDS011;21214;44.912;8.204;2024-01-30T08:41:44;77.22;;;48.60;;
35022;SDS011;21214;44.912;8.204;2024-01-30T08:44:09;78.10;;;50.28;;
35022;SDS011;21214;44.912;8.204;2024-01-30T08:46:36;76.22;;;50.80;;
35022;SDS011;21214;44.912;8.204;2024-01-30T08:49:02;72.95;;;48.30;;
35022;SDS011;21214;44.912;8.204;2024-01-30T08:51:29;78.47;;;48.58;;
35022;SDS011;21214;44.912;8.204;2024-01-30T08:53:54;81.47;;;50.28;;
35022;SDS011;21214;44.912;8.204;2024-01-30T08:56:20;73.57;;;49.38;;
35022;SDS011;21214;44.912;8.204;2024-01-30T08:58:45;80.72;;;49.38;;
35022;SDS011;21214;44.912;8.204;2024-01-30T09:01:11;81.65;;;49.60;;
35022;SDS011;21214;44.912;8.204;2024-01-30T09:03:36;81.38;;;51.08;;
35022;SDS011;21214;44.912;8.204;2024-01-30T09:06:08;79.15;;;49.83;;
35022;SDS011;21214;44.912;8.204;2024-01-30T09:08:34;84.85;;;51.63;;
35022;SDS011;21214;44.912;8.204;2024-01-30T09:10:59;85.70;;;52.40;;
35022;SDS011;21214;44.912;8.204;2024-01-30T09:13:25;87.22;;;53.75;;
35022;SDS011;21214;44.912;8.204;2024-01-30T09:15:50;81.88;;;51.83;;
35022;SDS011;21214;44.912;8.204;2024-01-30T09:18:16;87.70;;;53.47;;
35022;SDS011;21214;44.912;8.204;2024-01-30T09:20:41;83.43;;;52.17;;
35022;SDS011;21214;44.912;8.204;2024-01-30T09:23:07;84.32;;;52.83;;
35022;SDS011;21214;44.912;8.204;2024-01-30T09:25:33;86.50;;;53.15;;
35022;SDS011;21214;44.912;8.204;2024-01-30T09:27:59;86.60;;;54.92;;
35022;SDS011;21214;44.912;8.204;2024-01-30T09:30:25;84.88;;;53.97;;
35022;SDS011;21214;44.912;8.204;2024-01-30T09:32:50;95.32;;;56.35;;
35022;SDS011;21214;44.912;8.204;2024-01-30T09:35:16;92.00;;;55.17;;
35022;SDS011;21214;44.912;8.204;2024-01-30T09:37:41;89.18;;;55.70;;
35022;SDS011;21214;44.912;8.204;2024-01-30T09:40:07;89.88;;;55.30;;
35022;SDS011;21214;44.912;8.204;2024-01-30T09:42:33;93.60;;;55.10;;
35022;SDS011;21214;44.912;8.204;2024-01-30T09:45:01;90.53;;;55.13;;
35022;SDS011;21214;44.912;8.204;2024-01-30T09:47:30;94.15;;;56.63;;
35022;SDS011;21214;44.912;8.204;2024-01-30T09:50:04;94.85;;;56.70;;
35022;SDS011;21214;44.912;8.204;2024-01-30T09:52:31;99.68;;;56.85;;
35022;SDS011;21214;44.912;8.204;2024-01-30T09:54:57;87.18;;;54.45;;
35022;SDS011;21214;44.912;8.204;2024-01-30T09:57:25;85.90;;;54.47;;
35022;SDS011;21214;44.912;8.204;2024-01-30T09:59:51;92.65;;;57.00;;
35022;SDS011;21214;44.912;8.204;2024-01-30T10:02:19;88.18;;;54.83;;
35022;SDS011;21214;44.912;8.204;2024-01-30T10:04:45;88.78;;;55.00;;
35022;SDS011;21214;44.912;8.204;2024-01-30T10:07:13;87.95;;;55.58;;
35022;SDS011;21214;44.912;8.204;2024-01-30T10:09:39;84.18;;;54.97;;
35022;SDS011;21214;44.912;8.204;2024-01-30T10:12:05;91.35;;;54.92;;
35022;SDS011;21214;44.912;8.204;2024-01-30T10:14:31;93.07;;;55.05;;
35022;SDS011;21214;44.912;8.204;2024-01-30T10:17:00;87.68;;;53.97;;
35022;SDS011;21214;44.912;8.204;2024-01-30T10:19:26;86.32;;;54.17;;
35022;SDS011;21214;44.912;8.204;2024-01-30T10:21:52;93.32;;;54.85;;
35022;SDS011;21214;44.912;8.204;2024-01-30T10:24:18;88.60;;;54.22;;
35022;SDS011;21214;44.912;8.204;2024-01-30T10:26:43;91.90;;;54.60;;
35022;SDS011;21214;44.912;8.204;2024-01-30T10:29:09;85.18;;;53.22;;
35022;SDS011;21214;44.912;8.204;2024-01-30T10:31:35;89.28;;;54.15;;
35022;SDS011;21214;44.912;8.204;2024-01-30T10:34:00;88.72;;;56.80;;
35022;SDS011;21214;44.912;8.204;2024-01-30T10:36:28;92.22;;;56.42;;
35022;SDS011;21214;44.912;8.204;2024-01-30T10:38:59;90.57;;;55.50;;
35022;SDS011;21214;44.912;8.204;2024-01-30T10:41:26;93.57;;;56.38;;
35022;SDS011;21214;44.912;8.204;2024-01-30T10:44:13;89.53;;;55.72;;
35022;SDS011;21214;44.912;8.204;2024-01-30T10:46:41;84.10;;;54.15;;
35022;SDS011;21214;44.912;8.204;2024-01-30T10:49:09;86.25;;;53.20;;
35022;SDS011;21214;44.912;8.204;2024-01-30T10:51:35;89.47;;;54.08;;
35022;SDS011;21214;44.912;8.204;2024-01-30T10:54:03;87.05;;;54.08;;
35022;SDS011;21214;44.912;8.204;2024-01-30T10:56:30;86.18;;;53.08;;
35022;SDS011;21214;44.912;8.204;2024-01-30T10:58:58;92.80;;;53.03;;
35022;SDS011;21214;44.912;8.204;2024-01-30T11:01:24;81.13;;;51.50;;
35022;SDS011;21214;44.912;8.204;2024-01-30T11:03:52;83.63;;;50.60;;
35022;SDS011;21214;44.912;8.204;2024-01-30T11:06:54;90.18;;;52.85;;
35022;SDS011;21214;44.912;8.204;2024-01-30T11:09:20;79.40;;;48.65;;
35022;SDS011;21214;44.912;8.204;2024-01-30T11:11:49;88.32;;;52.22;;
35022;SDS011;21214;44.912;8.204;2024-01-30T11:14:25;80.53;;;48.22;;
35022;SDS011;21214;44.912;8.204;2024-01-30T11:16:59;78.55;;;49.55;;
35022;SDS011;21214;44.912;8.204;2024-01-30T11:19:30;83.55;;;50.72;;
35022;SDS011;21214;44.912;8.204;2024-01-30T11:22:15;85.47;;;52.03;;
35022;SDS011;21214;44.912;8.204;2024-01-30T11:24:40;83.88;;;50.50;;
35022;SDS011;21214;44.912;8.204;2024-01-30T11:27:13;83.72;;;52.58;;
35022;SDS011;21214;44.912;8.204;2024-01-30T11:30:03;83.72;;;50.45;;
35022;SDS011;21214;44.912;8.204;2024-01-30T11:32:30;88.22;;;51.85;;
35022;SDS011;21214;44.912;8.204;2024-01-30T11:35:05;82.15;;;50.80;;
35022;SDS011;21214;44.912;8.204;2024-01-30T11:37:33;85.93;;;51.03;;
35022;SDS011;21214;44.912;8.204;2024-01-30T11:40:03;80.87;;;49.47;;
35022;SDS011;21214;44.912;8.204;2024-01-30T11:42:33;80.53;;;50.65;;
35022;SDS011;21214;44.912;8.204;2024-01-30T11:45:05;83.32;;;52.85;;
35022;SDS011;21214;44.912;8.204;2024-01-30T11:47:37;78.75;;;50.05;;
35022;SDS011;21214;44.912;8.204;2024-01-30T11:50:09;86.93;;;51.90;;
35022;SDS011;21214;44.912;8.204;2024-01-30T11:52:40;88.07;;;54.25;;
35022;SDS011;21214;44.912;8.204;2024-01-30T11:55:06;87.05;;;50.70;;
35022;SDS011;21214;44.912;8.204;2024-01-30T11:57:35;81.10;;;49.95;;
35022;SDS011;21214;44.912;8.204;2024-01-30T12:00:17;85.93;;;50.70;;
35022;SDS011;21214;44.912;8.204;2024-01-30T12:02:52;83.68;;;50.38;;
35022;SDS011;21214;44.912;8.204;2024-01-30T12:05:23;82.25;;;48.78;;
35022;SDS011;21214;44.912;8.204;2024-01-30T12:07:57;77.15;;;49.20;;
35022;SDS011;21214;44.912;8.204;2024-01-30T12:10:29;85.20;;;50.05;;
35022;SDS011;21214;44.912;8.204;2024-01-30T12:12:58;78.57;;;48.25;;
35022;SDS011;21214;44.912;8.204;2024-01-30T12:15:24;76.25;;;48.10;;
35022;SDS011;21214;44.912;8.204;2024-01-30T12:18:03;83.75;;;49.67;;
35022;SDS011;21214;44.912;8.204;2024-01-30T12:20:31;77.25;;;47.78;;
35022;SDS011;21214;44.912;8.204;2024-01-30T12:22:59;75.90;;;48.10;;
35022;SDS011;21214;44.912;8.204;2024-01-30T12:25:29;83.85;;;50.67;;
35022;SDS011;21214;44.912;8.204;2024-01-30T12:27:56;78.50;;;49.10;;
35022;SDS011;21214;44.912;8.204;2024-01-30T12:30:25;82.13;;;50.72;;
35022;SDS011;21214;44.912;8.204;2024-01-30T12:32:53;76.05;;;47.65;;
35022;SDS011;21214;44.912;8.204;2024-01-30T12:35:23;78.03;;;46.58;;
35022;SDS011;21214;44.912;8.204;2024-01-30T12:37:51;71.75;;;44.42;;
35022;SDS011;21214;44.912;8.204;2024-01-30T12:40:21;71.80;;;44.90;;
35022;SDS011;21214;44.912;8.204;2024-01-30T12:42:51;77.32;;;45.03;;
35022;SDS011;21214;44.912;8.204;2024-01-30T12:45:19;73.82;;;44.95;;
35022;SDS011;21214;44.912;8.204;2024-01-30T12:48:05;72.85;;;44.97;;
35022;SDS011;21214;44.912;8.204;2024-01-30T12:50:31;73.38;;;43.22;;
35022;SDS011;21214;44.912;8.204;2024-01-30T12:53:02;75.50;;;44.40;;
35022;SDS011;21214;44.912;8.204;2024-01-30T12:55:28;69.88;;;42.92;;
35022;SDS011;21214;44.912;8.204;2024-01-30T12:57:58;73.78;;;43.97;;
35022;SDS011;21214;44.912;8.204;2024-01-30T13:00:24;73.75;;;44.13;;
35022;SDS011;21214;44.912;8.204;2024-01-30T13:02:53;67.07;;;40.65;;
35022;SDS011;21214;44.912;8.204;2024-01-30T13:05:19;70.93;;;42.60;;
35022;SDS011;21214;44.912;8.204;2024-01-30T13:07:45;71.35;;;40.70;;
35022;SDS011;21214;44.912;8.204;2024-01-30T13:10:17;67.95;;;40.92;;
35022;SDS011;21214;44.912;8.204;2024-01-30T13:12:46;62.58;;;38.80;;
35022;SDS011;21214;44.912;8.204;2024-01-30T13:15:11;67.68;;;39.03;;
35022;SDS011;21214;44.912;8.204;2024-01-30T13:17:57;56.33;;;35.83;;
35022;SDS011;21214;44.912;8.204;2024-01-30T13:20:25;59.85;;;34.30;;
35022;SDS011;21214;44.912;8.204;2024-01-30T13:22:57;50.22;;;28.80;;
35022;SDS011;21214;44.912;8.204;2024-01-30T13:25:27;46.08;;;27.35;;
35022;SDS011;21214;44.912;8.204;2024-01-30T13:27:55;49.28;;;29.30;;
35022;SDS011;21214;44.912;8.204;2024-01-30T13:30:22;50.75;;;30.80;;
35022;SDS011;21214;44.912;8.204;2024-01-30T13:32:52;49.65;;;28.92;;
35022;SDS011;21214;44.912;8.204;2024-01-30T13:35:24;45.70;;;28.73;;
35022;SDS011;21214;44.912;8.204;2024-01-30T13:37:55;50.38;;;29.25;;
35022;SDS011;21214;44.912;8.204;2024-01-30T13:40:31;53.13;;;31.88;;
35022;SDS011;21214;44.912;8.204;2024-01-30T13:42:57;49.00;;;29.73;;
35022;SDS011;21214;44.912;8.204;2024-01-30T13:45:23;51.92;;;30.50;;
35022;SDS011;21214;44.912;8.204;2024-01-30T13:47:50;50.25;;;29.15;;
35022;SDS011;21214;44.912;8.204;2024-01-30T13:50:18;54.78;;;30.27;;
35022;SDS011;21214;44.912;8.204;2024-01-30T13:52:52;50.63;;;28.17;;
35022;SDS011;21214;44.912;8.204;2024-01-30T13:55:22;45.45;;;29.83;;
35022;SDS011;21214;44.912;8.204;2024-01-30T13:57:48;47.42;;;28.83;;
35022;SDS011;21214;44.912;8.204;2024-01-30T14:00:17;48.85;;;29.95;;
35022;SDS011;21214;44.912;8.204;2024-01-30T14:02:43;50.33;;;29.50;;
35022;SDS011;21214;44.912;8.204;2024-01-30T14:05:08;46.97;;;31.30;;
35022;SDS011;21214;44.912;8.204;2024-01-30T14:07:42;50.90;;;31.10;;
35022;SDS011;21214;44.912;8.204;2024-01-30T14:10:11;50.85;;;28.45;;
35022;SDS011;21214;44.912;8.204;2024-01-30T14:12:41;46.88;;;29.90;;
35022;SDS011;21214;44.912;8.204;2024-01-30T14:15:17;50.95;;;31.10;;
35022;SDS011;21214;44.912;8.204;2024-01-30T14:17:47;52.05;;;31.33;;
35022;SDS011;21214;44.912;8.204;2024-01-30T14:20:19;53.55;;;33.13;;